Strona główna
METAR-TAF:

METAR-TAF

Lotnisko :

Chatham Municipal Airport

Chatham, Massachusetts, Stany Zjednoczone

Szerokość geograficzna: 41-41-15N, Długość geograficzna: 069-59-36W, wysokość: 20 m

Aktualna obserwacja pogody

Raport powstał 48 minut temu, godzina 07:52 UTC
Wiatr 3 kt od zachód
Temperatura 7°C
Wilgotność 93%
Ciśnienie 1012 hPa
Widzialność: 16.1 km
bezchmurnie

METAR: KCQX 250752Z AUTO 28003KT 10SM CLR 07/06 A2989 RMK AO2 SLP123 T00670056

czas: 04:40 (08:40 UTC)


TAF: brakujący

Obserwacja i prognoza pogody dla ponad 4000 lotnisk (raport METAR i TAF).

Dostępne stacje oznaczono żółtymi i czerwonymi punktami na mapie.

Najedź kursorem aby zobaczyć nazwę stacji.

Kliknij aby zobaczyć obserwacje i prognozy pogody.

Aby zmienić mapę: kliknij na zielony przycisk z czarnym krzyżykiem, aby powiększyć; na zielony przycisk z myślnikiem, aby pomniejszyć; na zielone strzałki, aby przejść do map sąsiednich.


METAR-TAF: